createdAt,value
2022-08-16T00:02:56.195Z,0.0
2022-08-16T00:08:04.882Z,0.0
2022-08-16T00:13:09.182Z,0.0
2022-08-16T00:18:05.653Z,0.0
2022-08-16T00:23:24.522Z,0.0
2022-08-16T00:28:28.703Z,0.0
2022-08-16T00:33:59.037Z,0.0
2022-08-16T00:38:43.392Z,0.0
2022-08-16T00:43:47.744Z,0.0
2022-08-16T00:48:54.138Z,0.0
2022-08-16T00:54:00.678Z,0.0
2022-08-16T00:59:07.116Z,0.0
2022-08-16T01:04:29.176Z,0.0
2022-08-16T01:09:47.964Z,0.0
2022-08-16T01:14:29.928Z,0.0
2022-08-16T01:19:57.145Z,0.0
2022-08-16T01:25:03.085Z,0.0
2022-08-16T01:29:58.609Z,0.0
2022-08-16T01:34:53.647Z,0.0
2022-08-16T01:39:58.436Z,0.0
2022-08-16T01:45:04.750Z,0.0
2022-08-16T01:50:42.184Z,0.0
2022-08-16T01:55:41.637Z,0.0
2022-08-16T02:00:29.328Z,0.0
2022-08-16T02:05:52.106Z,0.0
2022-08-16T02:10:36.981Z,0.0
2022-08-16T02:15:43.917Z,0.0
2022-08-16T02:20:49.920Z,0.0
2022-08-16T02:25:56.364Z,0.0
2022-08-16T02:31:02.799Z,0.0
2022-08-16T02:36:14.055Z,0.0
2022-08-16T02:41:15.572Z,0.0
2022-08-16T02:46:29.889Z,0.0
2022-08-16T02:51:52.600Z,0.0
2022-08-16T02:56:35.035Z,0.0
2022-08-16T03:01:41.588Z,0.0
2022-08-16T03:07:11.842Z,0.0
2022-08-16T03:12:16.545Z,0.0
2022-08-16T03:17:01.856Z,0.0
2022-08-16T03:22:30.973Z,0.0
2022-08-16T03:27:13.400Z,0.0
2022-08-16T03:32:19.782Z,0.0
2022-08-16T03:37:26.163Z,0.0
2022-08-16T03:43:18.466Z,0.0
2022-08-16T03:47:59.792Z,0.0
2022-08-16T03:52:45.492Z,0.0
2022-08-16T03:57:52.239Z,0.0
2022-08-16T04:02:58.119Z,0.0
2022-08-16T04:08:23.486Z,0.0
2022-08-16T04:13:20.459Z,0.0
2022-08-16T04:18:41.349Z,5.0
2022-08-16T04:23:23.689Z,5.0
2022-08-16T04:28:54.268Z,10.0
2022-08-16T04:34:00.504Z,15.0
2022-08-16T04:38:43.047Z,20.0
2022-08-16T04:43:49.532Z,25.0
2022-08-16T04:49:19.985Z,30.0
2022-08-16T04:54:02.297Z,35.0
2022-08-16T04:59:32.722Z,40.0
2022-08-16T05:04:35.186Z,45.0
2022-08-16T05:09:23.136Z,55.0
2022-08-16T05:14:45.721Z,60.0
2022-08-16T05:19:35.861Z,70.0
2022-08-16T05:24:40.952Z,80.0
2022-08-16T05:30:00.931Z,85.0
2022-08-16T05:35:14.035Z,95.0
2022-08-16T05:40:57.258Z,95.0
2022-08-16T05:45:07.482Z,110.0
2022-08-16T05:50:03.853Z,115.0
2022-08-16T05:56:51.422Z,120.0
2022-08-16T06:00:26.679Z,130.0
2022-08-16T06:05:36.230Z,140.0
2022-08-16T06:10:32.402Z,145.0
2022-08-16T06:15:59.929Z,150.0
2022-08-16T06:20:55.582Z,155.0
2022-08-16T06:26:59.481Z,165.0
2022-08-16T06:31:06.094Z,175.0
2022-08-16T06:36:14.101Z,180.0
2022-08-16T06:41:18.862Z,190.0
2022-08-16T06:46:15.223Z,200.0
2022-08-16T06:51:52.510Z,205.0
2022-08-16T06:56:39.639Z,215.0
2022-08-16T07:01:53.716Z,390.0
2022-08-16T07:07:12.497Z,580.0
2022-08-16T07:12:03.266Z,515.0
2022-08-16T07:17:08.350Z,490.0
2022-08-16T07:22:39.223Z,495.0
2022-08-16T07:27:19.795Z,460.0
2022-08-16T07:32:31.748Z,470.0
2022-08-16T07:42:45.526Z,470.0
2022-08-16T07:47:52.160Z,485.0
2022-08-16T07:53:18.590Z,485.0
2022-08-16T07:58:04.922Z,525.0
2022-08-16T08:03:36.139Z,540.0
2022-08-16T08:08:49.108Z,535.0
2022-08-16T08:13:31.015Z,565.0
2022-08-16T08:19:42.784Z,585.0
2022-08-16T08:28:33.965Z,800.0
2022-08-16T08:33:51.819Z,810.0
2022-08-16T08:39:13.131Z,745.0
2022-08-16T08:43:54.346Z,740.0
2022-08-16T08:49:02.362Z,830.0
2022-08-16T08:54:09.262Z,910.0
2022-08-16T08:59:43.523Z,1030.0
2022-08-16T09:09:37.817Z,1230.0
2022-08-16T09:15:03.258Z,1375.0
2022-08-16T09:19:40.768Z,1520.0
2022-08-16T09:24:59.826Z,1480.0
2022-08-16T09:30:33.670Z,1535.0
2022-08-16T09:35:16.588Z,1660.0
2022-08-16T09:40:43.986Z,1680.0
2022-08-16T09:45:25.493Z,1630.0
2022-08-16T09:50:22.551Z,1820.0
2022-08-16T09:55:44.245Z,1955.0
2022-08-16T10:00:44.360Z,1905.0
2022-08-16T10:07:15.051Z,1990.0
2022-08-16T10:11:24.741Z,1950.0
2022-08-16T10:16:07.883Z,1885.0
2022-08-16T10:21:00.163Z,2070.0
2022-08-16T10:27:16.247Z,2110.0
2022-08-16T10:31:43.500Z,1870.0
2022-08-16T10:36:39.278Z,1990.0
2022-08-16T10:42:20.685Z,2125.0
2022-08-16T10:47:30.432Z,2215.0
2022-08-16T10:57:41.410Z,550.0
2022-08-16T11:02:58.614Z,2380.0
2022-08-16T11:07:45.420Z,2085.0
2022-08-16T11:13:21.035Z,820.0
2022-08-16T11:23:13.445Z,430.0
2022-08-16T11:34:20.812Z,2085.0
2022-08-16T11:38:51.974Z,405.0
2022-08-16T11:43:41.984Z,335.0
2022-08-16T11:49:14.367Z,300.0
2022-08-16T11:53:56.365Z,470.0
2022-08-16T11:59:02.922Z,1890.0
2022-08-16T12:04:09.416Z,2130.0
2022-08-16T12:09:21.321Z,530.0
2022-08-16T12:14:27.719Z,590.0
2022-08-16T12:19:33.676Z,2310.0
2022-08-16T12:25:00.696Z,430.0
2022-08-16T12:30:21.301Z,420.0
2022-08-16T12:34:53.527Z,2240.0
2022-08-16T12:39:59.953Z,2165.0
2022-08-16T12:45:09.819Z,560.0
2022-08-16T12:50:06.191Z,620.0
2022-08-16T12:55:14.345Z,1835.0
2022-08-16T13:06:01.969Z,445.0
2022-08-16T13:10:45.295Z,2120.0
2022-08-16T13:15:57.191Z,1965.0
2022-08-16T13:21:23.329Z,305.0
2022-08-16T13:26:07.939Z,1630.0
2022-08-16T13:31:14.254Z,1595.0
2022-08-16T13:41:30.311Z,1615.0
2022-08-16T13:46:32.954Z,1805.0
2022-08-16T13:52:23.787Z,1675.0
2022-08-16T13:57:53.395Z,780.0
2022-08-16T14:03:01.903Z,1115.0
2022-08-16T14:07:44.156Z,1345.0
2022-08-16T14:12:54.509Z,725.0
2022-08-16T14:18:21.157Z,415.0
2022-08-16T14:23:03.253Z,400.0
2022-08-16T14:28:09.857Z,530.0
2022-08-16T14:34:29.942Z,610.0
2022-08-16T14:38:23.650Z,400.0
2022-08-16T14:44:06.050Z,420.0
2022-08-16T14:49:03.459Z,415.0
2022-08-16T14:54:19.958Z,370.0
2022-08-16T14:59:16.340Z,365.0
2022-08-16T15:04:48.062Z,345.0
2022-08-16T15:10:03.588Z,340.0
2022-08-16T15:14:36.042Z,310.0
2022-08-16T15:19:52.444Z,325.0
2022-08-16T15:25:18.878Z,315.0
2022-08-16T15:30:56.706Z,290.0
2022-08-16T15:35:03.425Z,320.0
2022-08-16T15:40:32.397Z,330.0
2022-08-16T15:46:03.838Z,285.0
2022-08-16T15:51:11.134Z,240.0
2022-08-16T15:56:21.530Z,220.0
2022-08-16T16:01:14.036Z,170.0
2022-08-16T16:06:30.323Z,170.0
2022-08-16T16:11:36.703Z,175.0
2022-08-16T16:17:07.151Z,170.0
2022-08-16T16:21:49.571Z,155.0
2022-08-16T16:26:45.941Z,145.0
2022-08-16T16:32:02.350Z,135.0
2022-08-16T16:37:09.986Z,130.0
2022-08-16T16:42:35.285Z,125.0
2022-08-16T16:48:45.857Z,120.0
2022-08-16T16:52:31.405Z,120.0
2022-08-16T16:57:55.754Z,110.0
2022-08-16T17:02:49.714Z,105.0
2022-08-16T17:07:48.681Z,100.0
2022-08-16T17:13:18.912Z,90.0
2022-08-16T17:18:01.893Z,85.0
2022-08-16T17:23:07.792Z,85.0
2022-08-16T17:28:58.867Z,80.0
2022-08-16T17:38:39.038Z,65.0
2022-08-16T17:39:27.126Z,70.0
2022-08-16T17:43:23.258Z,60.0
2022-08-16T17:48:39.686Z,60.0
2022-08-16T17:53:50.442Z,60.0
2022-08-16T18:00:05.793Z,65.0
2022-08-16T18:04:09.165Z,65.0
2022-08-16T18:09:06.925Z,55.0
2022-08-16T18:14:50.929Z,50.0
2022-08-16T18:19:40.383Z,35.0
2022-08-16T18:24:16.700Z,25.0
2022-08-16T18:29:33.103Z,20.0
2022-08-16T18:34:39.618Z,15.0
2022-08-16T18:40:10.630Z,10.0
2022-08-16T18:44:52.892Z,5.0
2022-08-16T18:49:59.364Z,5.0
2022-08-16T18:55:14.055Z,0.0
2022-08-16T19:00:12.218Z,0.0
2022-08-16T19:05:18.588Z,0.0
2022-08-16T19:10:39.021Z,0.0
2022-08-16T19:16:15.487Z,0.0
2022-08-16T19:20:37.808Z,0.0
2022-08-16T19:25:48.653Z,0.0
2022-08-16T19:30:54.803Z,0.0
2022-08-16T19:42:53.924Z,0.0
2022-08-16T19:46:49.205Z,0.0
2022-08-16T19:52:15.615Z,0.0
2022-08-16T19:56:51.942Z,0.0
2022-08-16T20:01:58.392Z,0.0
2022-08-16T20:07:14.789Z,0.0
2022-08-16T20:12:21.184Z,0.0
2022-08-16T20:17:50.826Z,0.0
2022-08-16T20:22:54.743Z,0.0
2022-08-16T20:27:44.857Z,0.0
2022-08-16T20:32:51.551Z,0.0
2022-08-16T20:37:57.755Z,0.0
2022-08-16T20:43:28.187Z,0.0
2022-08-16T20:48:10.585Z,0.0
2022-08-16T20:53:37.349Z,0.0
2022-08-16T20:58:47.507Z,0.0
2022-08-16T21:03:51.450Z,0.0
2022-08-16T21:08:51.914Z,0.0
2022-08-16T21:13:44.181Z,0.0
2022-08-16T21:18:50.550Z,0.0
2022-08-16T21:24:41.016Z,0.0
2022-08-16T21:29:03.296Z,0.0
2022-08-16T21:33:59.660Z,0.0
2022-08-16T21:39:16.195Z,0.0
2022-08-16T21:44:12.585Z,0.0
2022-08-16T21:49:53.022Z,0.0
2022-08-16T21:54:35.369Z,0.0
2022-08-16T21:59:41.827Z,0.0
2022-08-16T22:04:52.160Z,0.0
2022-08-16T22:09:56.221Z,0.0
2022-08-16T22:14:51.065Z,0.0
2022-08-16T22:20:27.548Z,0.0
2022-08-16T22:25:37.930Z,0.0
2022-08-16T22:30:20.290Z,0.0
2022-08-16T22:35:26.636Z,0.0
2022-08-16T22:40:33.027Z,0.0
2022-08-16T22:45:39.485Z,0.0
2022-08-16T22:50:45.893Z,0.0
2022-08-16T22:56:54.463Z,0.0
2022-08-16T23:00:58.732Z,0.0
2022-08-16T23:06:05.134Z,0.0
2022-08-16T23:11:13.071Z,0.0
2022-08-16T23:16:19.448Z,0.0
2022-08-16T23:21:31.426Z,0.0
2022-08-16T23:26:46.783Z,0.0
2022-08-16T23:31:40.184Z,0.0
2022-08-16T23:36:46.579Z,0.0
2022-08-16T23:42:53.575Z,0.0
2022-08-16T23:47:34.405Z,0.0
2022-08-16T23:52:55.815Z,0.0
2022-08-16T23:58:11.349Z,0.0
